Time,TemperatureF,DewpointF,PressureIn,WindDirection,WindDirectionDegrees,WindSpeedMPH,WindSpeedGustMPH,Humidity,HourlyPrecipIn,Conditions,Clouds,dailyrainin,SolarRadiationWatts/m^2,SoftwareType,DateUTC
2013-08-11 00:00:00,57.0,56.0,-100.00,South,180,0.0,-999.0,94,-99.99,,,-99.99,0.000000,,2013-08-11 05:00:00,
2013-08-11 00:38:00,57.0,56.0,-100.00,South,180,0.0,-999.0,94,-99.99,,,-99.99,0.000000,,2013-08-11 05:38:00,
2013-08-11 00:57:00,57.0,56.0,-100.00,South,180,0.0,-999.0,94,-99.99,,,-99.99,0.000000,,2013-08-11 05:57:00,
2013-08-11 01:00:00,58.0,57.0,-100.00,SSW,202,0.0,-999.0,94,-99.99,,,-99.99,0.000000,,2013-08-11 06:00:00,
2013-08-11 01:49:00,58.0,57.0,-100.00,SSW,202,0.0,-999.0,94,-99.99,,,-99.99,0.000000,,2013-08-11 06:49:00,
2013-08-11 01:57:00,58.0,57.0,-100.00,SSW,202,0.0,-999.0,94,-99.99,,,-99.99,0.000000,,2013-08-11 06:57:00,
2013-08-11 02:00:00,59.0,57.0,-100.00,NW,315,0.0,-999.0,95,-99.99,,,-99.99,0.000000,,2013-08-11 07:00:00,
2013-08-11 02:38:00,59.0,57.0,-100.00,NW,315,0.0,-999.0,95,-99.99,,,-99.99,0.000000,,2013-08-11 07:38:00,
2013-08-11 02:47:00,59.0,57.0,-100.00,NW,315,0.0,-999.0,95,-99.99,,,-99.99,0.000000,,2013-08-11 07:47:00,
2013-08-11 02:56:00,59.0,57.0,-100.00,NW,315,0.0,-999.0,95,-99.99,,,-99.99,0.000000,,2013-08-11 07:56:00,
2013-08-11 03:37:00,59.0,57.0,-100.00,NW,315,1.0,-999.0,93,-99.99,,,-99.99,0.000000,,2013-08-11 08:37:00,
2013-08-11 03:49:00,59.0,57.0,-100.00,NW,315,1.0,-999.0,93,-99.99,,,-99.99,0.000000,,2013-08-11 08:49:00,
2013-08-11 03:59:00,59.0,57.0,-100.00,NW,315,1.0,-999.0,93,-99.99,,,-99.99,0.000000,,2013-08-11 08:59:00,
2013-08-11 04:00:00,60.0,56.0,-100.00,WNW,292,1.0,-999.0,86,-99.99,,,-99.99,0.000000,,2013-08-11 09:00:00,
2013-08-11 04:44:00,60.0,56.0,-100.00,WNW,292,1.0,-999.0,86,-99.99,,,-99.99,0.000000,,2013-08-11 09:44:00,
2013-08-11 05:00:00,60.0,56.0,-100.00,WSW,247,1.0,-999.0,86,-99.99,,,-99.99,0.000000,,2013-08-11 10:00:00,
2013-08-11 05:38:00,60.0,56.0,-100.00,WSW,247,1.0,-999.0,86,-99.99,,,-99.99,0.000000,,2013-08-11 10:38:00,
2013-08-11 05:47:00,60.0,56.0,-100.00,WSW,247,1.0,-999.0,86,-99.99,,,-99.99,0.000000,,2013-08-11 10:47:00,
2013-08-11 05:57:00,60.0,56.0,-100.00,WSW,247,1.0,-999.0,86,-99.99,,,-99.99,0.000000,,2013-08-11 10:57:00,
2013-08-11 06:00:00,58.0,56.0,-100.00,SSW,202,0.0,-999.0,92,-99.99,,,-99.99,2.320000,,2013-08-11 11:00:00,
2013-08-11 06:40:00,58.0,56.0,-100.00,SSW,202,0.0,-999.0,92,-99.99,,,-99.99,2.320000,,2013-08-11 11:40:00,
2013-08-11 06:50:00,58.0,56.0,-100.00,SSW,202,0.0,-999.0,92,-99.99,,,-99.99,2.320000,,2013-08-11 11:50:00,
2013-08-11 07:00:00,58.0,56.0,-100.00,SSW,202,1.0,-999.0,93,-99.99,,,-99.99,30.160000,,2013-08-11 12:00:00,
2013-08-11 07:37:00,58.0,56.0,-100.00,SSW,202,1.0,-999.0,93,-99.99,,,-99.99,30.160000,,2013-08-11 12:37:00,
2013-08-11 07:47:00,58.0,56.0,-100.00,SSW,202,1.0,-999.0,93,-99.99,,,-99.99,30.160000,,2013-08-11 12:47:00,
2013-08-11 07:56:00,58.0,56.0,-100.00,SSW,202,1.0,-999.0,93,-99.99,,,-99.99,30.160000,,2013-08-11 12:56:00,
2013-08-11 08:41:00,62.0,58.0,-100.00,WSW,247,1.0,-999.0,87,-99.99,,,-99.99,70.760002,,2013-08-11 13:41:00,
2013-08-11 08:48:00,62.0,58.0,-100.00,WSW,247,1.0,-999.0,87,-99.99,,,-99.99,70.760002,,2013-08-11 13:48:00,
2013-08-11 08:58:00,62.0,58.0,-100.00,WSW,247,1.0,-999.0,87,-99.99,,,-99.99,70.760002,,2013-08-11 13:58:00,
2013-08-11 09:00:00,64.0,58.0,-100.00,West,270,2.0,-999.0,81,-99.99,,,-99.99,105.559998,,2013-08-11 14:00:00,
2013-08-11 09:36:00,64.0,58.0,-100.00,West,270,2.0,-999.0,81,-99.99,,,-99.99,105.559998,,2013-08-11 14:36:00,
2013-08-11 09:49:00,64.0,58.0,-100.00,West,270,2.0,-999.0,81,-99.99,,,-99.99,105.559998,,2013-08-11 14:49:00,
2013-08-11 09:57:00,64.0,58.0,-100.00,West,270,2.0,-999.0,81,-99.99,,,-99.99,105.559998,,2013-08-11 14:57:00,
2013-08-11 10:00:00,66.0,56.0,-100.00,WNW,292,2.0,-999.0,71,-99.99,,,-99.99,381.640015,,2013-08-11 15:00:00,
2013-08-11 10:41:00,66.0,56.0,-100.00,WNW,292,2.0,-999.0,71,-99.99,,,-99.99,381.640015,,2013-08-11 15:41:00,
2013-08-11 10:49:00,66.0,56.0,-100.00,WNW,292,2.0,-999.0,71,-99.99,,,-99.99,381.640015,,2013-08-11 15:49:00,
2013-08-11 11:00:00,68.0,56.0,-100.00,WNW,292,2.0,-999.0,67,-99.99,,,-99.99,423.399994,,2013-08-11 16:00:00,
2013-08-11 11:41:00,68.0,56.0,-100.00,WNW,292,2.0,-999.0,67,-99.99,,,-99.99,423.399994,,2013-08-11 16:41:00,
2013-08-11 11:47:00,68.0,56.0,-100.00,WNW,292,2.0,-999.0,67,-99.99,,,-99.99,423.399994,,2013-08-11 16:47:00,
2013-08-11 11:58:00,68.0,56.0,-100.00,WNW,292,2.0,-999.0,67,-99.99,,,-99.99,423.399994,,2013-08-11 16:58:00,
2013-08-11 12:00:00,70.0,56.0,-100.00,WSW,247,2.0,-999.0,61,-99.99,,,-99.99,537.080017,,2013-08-11 17:00:00,
2013-08-11 12:38:00,70.0,56.0,-100.00,WSW,247,2.0,-999.0,61,-99.99,,,-99.99,537.080017,,2013-08-11 17:38:00,
2013-08-11 12:48:00,70.0,56.0,-100.00,WSW,247,2.0,-999.0,61,-99.99,,,-99.99,537.080017,,2013-08-11 17:48:00,
2013-08-11 12:58:00,70.0,56.0,-100.00,WSW,247,2.0,-999.0,61,-99.99,,,-99.99,537.080017,,2013-08-11 17:58:00,
2013-08-11 13:49:00,72.0,55.0,-100.00,West,270,3.0,-999.0,55,-99.99,,,-99.99,689.039978,,2013-08-11 18:49:00,
2013-08-11 13:57:00,72.0,55.0,-100.00,West,270,3.0,-999.0,55,-99.99,,,-99.99,689.039978,,2013-08-11 18:57:00,
2013-08-11 14:00:00,73.0,54.0,-100.00,West,270,3.0,-999.0,50,-99.99,,,-99.99,834.039978,,2013-08-11 19:00:00,
2013-08-11 14:35:00,73.0,54.0,-100.00,West,270,3.0,-999.0,50,-99.99,,,-99.99,834.039978,,2013-08-11 19:35:00,
2013-08-11 14:51:00,73.0,54.0,-100.00,West,270,3.0,-999.0,50,-99.99,,,-99.99,834.039978,,2013-08-11 19:51:00,
2013-08-11 15:00:00,74.0,53.0,-100.00,WSW,247,3.0,-999.0,47,-99.99,,,-99.99,783.000000,,2013-08-11 20:00:00,
2013-08-11 15:40:00,74.0,53.0,-100.00,WSW,247,3.0,-999.0,47,-99.99,,,-99.99,783.000000,,2013-08-11 20:40:00,
2013-08-11 15:50:00,74.0,53.0,-100.00,WSW,247,3.0,-999.0,47,-99.99,,,-99.99,783.000000,,2013-08-11 20:50:00,
2013-08-11 15:58:00,74.0,53.0,-100.00,WSW,247,3.0,-999.0,47,-99.99,,,-99.99,783.000000,,2013-08-11 20:58:00,
2013-08-11 16:00:00,75.0,52.0,-100.00,SW,225,3.0,-999.0,45,-99.99,,,-99.99,684.400024,,2013-08-11 21:00:00,
2013-08-11 16:37:00,75.0,52.0,-100.00,SW,225,3.0,-999.0,45,-99.99,,,-99.99,684.400024,,2013-08-11 21:37:00,
2013-08-11 16:50:00,75.0,52.0,-100.00,SW,225,3.0,-999.0,45,-99.99,,,-99.99,684.400024,,2013-08-11 21:50:00,
2013-08-11 16:59:00,75.0,52.0,-100.00,SW,225,3.0,-999.0,45,-99.99,,,-99.99,684.400024,,2013-08-11 21:59:00,
2013-08-11 17:00:00,74.0,55.0,-100.00,SSW,202,4.0,-999.0,50,-99.99,,,-99.99,597.400024,,2013-08-11 22:00:00,
2013-08-11 17:36:00,74.0,55.0,-100.00,SSW,202,4.0,-999.0,50,-99.99,,,-99.99,597.400024,,2013-08-11 22:36:00,
2013-08-11 18:00:00,71.0,57.0,-100.00,SSE,157,5.0,-999.0,60,-99.99,,,-99.99,128.759995,,2013-08-11 23:00:00,
2013-08-11 18:37:00,71.0,57.0,-100.00,SSE,157,5.0,-999.0,60,-99.99,,,-99.99,128.759995,,2013-08-11 23:37:00,
2013-08-11 18:57:00,71.0,57.0,-100.00,SSE,157,5.0,-999.0,60,-99.99,,,-99.99,128.759995,,2013-08-11 23:57:00,
2013-08-11 19:00:00,69.0,58.0,-100.00,South,180,3.0,-999.0,68,-99.99,,,-99.99,62.639999,,2013-08-12 00:00:00,
2013-08-11 19:38:00,69.0,58.0,-100.00,South,180,3.0,-999.0,68,-99.99,,,-99.99,62.639999,,2013-08-12 00:38:00,
2013-08-11 19:59:00,69.0,58.0,-100.00,South,180,3.0,-999.0,68,-99.99,,,-99.99,62.639999,,2013-08-12 00:59:00,
2013-08-11 20:00:00,67.0,59.0,-100.00,SSW,202,1.0,-999.0,76,-99.99,,,-99.99,44.080002,,2013-08-12 01:00:00,
2013-08-11 20:40:00,67.0,59.0,-100.00,SSW,202,1.0,-999.0,76,-99.99,,,-99.99,44.080002,,2013-08-12 01:40:00,
2013-08-11 20:48:00,67.0,59.0,-100.00,SSW,202,1.0,-999.0,76,-99.99,,,-99.99,44.080002,,2013-08-12 01:48:00,
2013-08-11 21:00:00,61.0,58.0,-100.00,South,180,0.0,-999.0,90,-99.99,,,-99.99,1.160000,,2013-08-12 02:00:00,
2013-08-11 21:37:00,61.0,58.0,-100.00,South,180,0.0,-999.0,90,-99.99,,,-99.99,1.160000,,2013-08-12 02:37:00,
2013-08-11 23:00:00,57.0,56.0,-100.00,South,180,1.0,-999.0,95,-99.99,,,-99.99,0.000000,,2013-08-12 04:00:00,
2013-08-11 23:33:00,57.0,56.0,-100.00,South,180,1.0,-999.0,95,-99.99,,,-99.99,0.000000,,2013-08-12 04:33:00,
2013-08-11 23:43:00,57.0,56.0,-100.00,South,180,1.0,-999.0,95,-99.99,,,-99.99,0.000000,,2013-08-12 04:43:00,
2013-08-11 23:52:00,57.0,56.0,-100.00,South,180,1.0,-999.0,95,-99.99,,,-99.99,0.000000,,2013-08-12 04:52:00,